Time;durP1;ratioP1;P1;durP2;ratioP2;P2;SDS_P1;SDS_P2;PMS_P1;PMS_P2;Temp;Humidity;BMP_temperature;BMP_pressure;BME280_temperature;BME280_humidity;BME280_pressure;Samples;Min_cycle;Max_cycle;Signal;HPM_P1;HPM_P2
2021/05/23 05:00:59;;;;;;;2.60;2.40;;;;;;;18.78;61.04;95006.16;6177809;22;20068;-79
2021/05/23 05:03:25;;;;;;;2.67;2.47;;;;;;;19.07;61.23;95011.69;6212126;23;20012;-78
2021/05/23 05:05:50;;;;;;;2.83;2.63;;;;;;;17.50;64.18;95014.75;6239621;23;20441;-77
2021/05/23 05:08:16;;;;;;;3.30;3.08;;;;;;;18.98;61.64;95007.75;6189597;23;20031;-78
2021/05/23 05:10:42;;;;;;;2.72;2.53;;;;;;;19.63;59.48;94969.31;6158338;23;20021;-78
2021/05/23 05:13:07;;;;;;;2.83;2.63;;;;;;;19.94;58.09;95016.31;6181943;23;20012;-79
2021/05/23 05:15:33;;;;;;;2.65;2.53;;;;;;;21.13;56.03;95000.00;6182868;23;20005;-79
2021/05/23 05:17:58;;;;;;;3.38;2.60;;;;;;;21.02;55.18;94993.72;6209224;23;20001;-81
2021/05/23 05:20:24;;;;;;;2.63;2.42;;;;;;;20.84;56.92;95003.59;6157627;23;20058;-78
2021/05/23 05:22:52;;;;;;;2.95;2.40;;;;;;;21.04;54.54;94983.75;6183302;23;20423;-78
2021/05/23 05:25:17;;;;;;;4.72;2.88;;;;;;;20.82;54.15;94977.53;6157813;23;20005;-78
2021/05/23 05:27:43;;;;;;;3.47;2.85;;;;;;;21.33;53.71;94997.75;6158529;23;20334;-78
2021/05/23 05:30:09;;;;;;;3.08;2.83;;;;;;;21.69;52.72;94991.28;6156470;23;20067;-78
2021/05/23 05:32:34;;;;;;;2.72;2.53;;;;;;;22.03;51.26;94994.75;6183152;23;20039;-78
2021/05/23 05:35:00;;;;;;;3.33;2.65;;;;;;;21.62;50.87;94995.09;6181606;23;20008;-79
2021/05/23 05:37:25;;;;;;;3.72;2.58;;;;;;;20.87;53.28;94993.41;6183260;23;20031;-79
2021/05/23 05:39:51;;;;;;;3.13;2.20;;;;;;;20.50;55.64;94994.75;6157332;23;20004;-79
2021/05/23 05:42:16;;;;;;;2.80;2.60;;;;;;;21.41;54.74;94986.84;6182291;23;20004;-79
2021/05/23 05:44:41;;;;;;;2.50;2.35;;;;;;;20.67;56.66;94979.84;6182831;23;20401;-78
2021/05/23 05:47:07;;;;;;;3.25;2.47;;;;;;;21.62;54.85;94998.53;6181565;23;20001;-78
2021/05/23 05:49:36;;;;;;;2.15;2.03;;;;;;;21.91;53.42;94959.75;6183078;23;20036;-82
2021/05/23 05:52:02;;;;;;;2.42;2.22;;;;;;;21.19;55.92;94979.84;6155982;23;20031;-81
2021/05/23 05:54:28;;;;;;;4.72;2.60;;;;;;;22.33;53.73;94997.84;6132997;23;20351;-81
2021/05/23 05:56:53;;;;;;;5.20;2.63;;;;;;;22.92;50.62;94990.22;6156571;23;20393;-85
2021/05/23 05:59:19;;;;;;;3.42;2.20;;;;;;;23.05;50.84;95003.06;6157763;23;20051;-79
2021/05/23 06:01:44;;;;;;;2.47;2.30;;;;;;;23.89;50.16;95009.47;6209877;23;20335;-79
2021/05/23 06:04:10;;;;;;;2.85;2.17;;;;;;;23.12;48.88;94997.59;6183219;23;20009;-79
2021/05/23 06:06:35;;;;;;;2.58;2.38;;;;;;;23.31;51.11;95002.28;6159685;23;20001;-80
2021/05/23 06:09:01;;;;;;;4.70;2.45;;;;;;;23.34;51.16;94999.13;6158029;23;20513;-80
2021/05/23 06:11:26;;;;;;;2.72;2.50;;;;;;;22.11;55.12;95009.38;6184687;23;20012;-80
2021/05/23 06:13:51;;;;;;;3.20;2.60;;;;;;;22.39;55.17;95014.56;6182388;23;20012;-79
2021/05/23 06:16:17;;;;;;;2.90;2.50;;;;;;;21.75;56.73;95014.06;6159660;23;20001;-79
2021/05/23 06:18:42;;;;;;;9.38;2.97;;;;;;;22.53;54.36;95014.00;6183678;23;20000;-80
2021/05/23 06:21:08;;;;;;;5.00;2.72;;;;;;;22.34;54.08;94998.66;6183659;23;20490;-80
2021/05/23 06:23:33;;;;;;;2.85;2.65;;;;;;;23.01;51.85;95008.03;6184486;23;20020;-78
2021/05/23 06:25:59;;;;;;;6.38;3.03;;;;;;;23.09;51.28;94985.63;6157506;23;20008;-80
2021/05/23 06:28:26;;;;;;;3.03;2.45;;;;;;;24.32;48.81;95013.81;6134703;23;20011;-79
2021/05/23 06:30:51;;;;;;;3.05;2.75;;;;;;;24.13;50.00;94992.25;6182933;23;20346;-79
2021/05/23 06:33:17;;;;;;;4.07;2.90;;;;;;;22.16;54.05;95026.09;6184645;23;20067;-75
2021/05/23 06:35:42;;;;;;;3.42;2.67;;;;;;;22.48;52.44;95029.75;6210037;23;20016;-75
2021/05/23 06:38:08;;;;;;;4.00;2.53;;;;;;;23.89;50.88;95027.22;6210419;23;20001;-75
2021/05/23 06:40:33;;;;;;;2.70;2.50;;;;;;;22.02;49.51;95030.09;6159283;23;20470;-77
2021/05/23 06:42:59;;;;;;;5.25;2.72;;;;;;;22.82;51.83;95030.53;6182861;23;20369;-74
2021/05/23 06:45:25;;;;;;;3.60;2.72;;;;;;;21.76;51.05;95038.59;6184528;23;20434;-72
2021/05/23 06:47:50;;;;;;;2.65;2.42;;;;;;;22.13;53.68;95033.69;6208947;23;20001;-74
2021/05/23 06:50:15;;;;;;;2.83;2.17;;;;;;;21.85;52.46;95042.44;6178999;23;20004;-75
2021/05/23 06:52:41;;;;;;;2.78;2.33;;;;;;;20.95;55.62;95042.28;6157678;23;20012;-75
2021/05/23 06:55:07;;;;;;;3.65;2.78;;;;;;;21.03;56.36;95047.19;6208974;23;20013;-75
2021/05/23 06:57:32;;;;;;;2.50;2.30;;;;;;;21.82;53.00;95048.19;6181494;23;20012;-74
2021/05/23 06:59:58;;;;;;;2.65;2.45;;;;;;;22.11;53.53;95051.59;6181170;23;20047;-75
2021/05/23 07:02:24;;;;;;;2.30;2.10;;;;;;;21.91;52.61;95041.50;6209665;23;20036;-75
2021/05/23 07:04:52;;;;;;;3.78;2.55;;;;;;;22.50;50.53;95043.53;6181559;23;20023;-74
2021/05/23 07:07:18;;;;;;;5.95;2.70;;;;;;;22.02;50.96;95038.81;6209682;23;20008;-76
2021/05/23 07:09:43;;;;;;;3.08;2.50;;;;;;;21.88;50.52;95026.13;6156985;23;20005;-74
2021/05/23 07:12:09;;;;;;;4.85;3.47;;;;;;;21.70;53.44;95039.53;6209366;23;20010;-74
2021/05/23 07:14:35;;;;;;;3.65;3.20;;;;;;;22.10;50.48;95039.44;6182626;23;20520;-75
2021/05/23 07:17:00;;;;;;;3.03;2.70;;;;;;;21.92;51.74;95043.13;6182956;23;20008;-75
2021/05/23 07:19:27;;;;;;;2.67;2.40;;;;;;;21.55;51.53;95032.16;6209505;23;20015;-75
2021/05/23 07:21:53;;;;;;;6.03;5.35;;;;;;;21.62;51.75;95029.38;6208182;23;20434;-75
2021/05/23 07:24:18;;;;;;;3.40;3.10;;;;;;;22.06;52.74;95036.47;6208169;23;20001;-75
2021/05/23 07:26:43;;;;;;;4.45;2.65;;;;;;;20.80;52.63;95036.72;6155318;23;20008;-76
2021/05/23 07:29:10;;;;;;;3.20;2.72;;;;;;;20.80;53.05;95034.91;6158926;23;20008;-76
2021/05/23 07:31:36;;;;;;;4.70;3.05;;;;;;;21.23;52.04;95012.56;6208229;23;20009;-75
2021/05/23 07:34:01;;;;;;;5.22;3.17;;;;;;;20.12;53.50;95024.13;6183920;23;20009;-76
2021/05/23 07:36:28;;;;;;;4.70;2.85;;;;;;;21.35;52.86;95021.25;6182111;23;20099;-76
2021/05/23 07:38:54;;;;;;;2.60;2.40;;;;;;;21.66;51.10;95026.03;6182545;23;20032;-76
2021/05/23 07:41:20;;;;;;;2.92;2.72;;;;;;;21.57;51.76;95024.03;6181972;23;20004;-76
2021/05/23 07:43:46;;;;;;;3.30;3.00;;;;;;;20.45;52.15;95029.63;6180465;23;20070;-75
2021/05/23 07:46:11;;;;;;;3.78;2.60;;;;;;;20.61;53.60;95025.53;6208886;23;20001;-76
2021/05/23 07:48:37;;;;;;;3.70;2.65;;;;;;;21.20;51.36;95013.84;6180498;23;20129;-75
2021/05/23 07:51:03;;;;;;;4.28;2.90;;;;;;;21.94;51.72;95018.09;6157048;23;19997;-75
2021/05/23 07:53:29;;;;;;;4.43;2.67;;;;;;;23.07;50.09;95030.84;6181326;23;20008;-78
2021/05/23 07:55:54;;;;;;;3.33;2.67;;;;;;;22.81;47.59;95020.19;6209066;23;20012;-79
2021/05/23 07:58:22;;;;;;;5.40;2.60;;;;;;;22.86;48.59;95007.06;6181255;23;20009;-80
2021/05/23 08:00:48;;;;;;;2.70;2.47;;;;;;;22.46;47.94;95008.06;6176647;23;20020;-77
2021/05/23 08:03:14;;;;;;;6.93;2.67;;;;;;;22.78;48.58;95005.63;6180156;23;20001;-76
2021/05/23 08:05:39;;;;;;;3.85;2.30;;;;;;;23.05;49.83;95005.69;6178628;23;20033;-76
2021/05/23 08:08:06;;;;;;;3.47;2.60;;;;;;;23.75;47.99;95010.97;6178413;23;20013;-76
2021/05/23 08:10:32;;;;;;;2.35;2.13;;;;;;;23.13;49.09;95001.81;6178658;23;20012;-76
2021/05/23 08:12:57;;;;;;;3.83;2.38;;;;;;;22.51;49.50;95010.78;6154075;23;20012;-79
2021/05/23 08:15:23;;;;;;;2.95;2.38;;;;;;;23.09;47.51;94998.84;6174573;23;20005;-79
2021/05/23 08:17:52;;;;;;;2.20;2.00;;;;;;;22.95;47.72;94989.72;6175943;23;20005;-79
2021/05/23 08:20:18;;;;;;;5.13;2.45;;;;;;;23.28;48.77;95010.69;6153556;23;20005;-78
2021/05/23 08:22:43;;;;;;;9.07;3.03;;;;;;;22.62;49.08;95005.63;6175600;23;20443;-75
2021/05/23 08:25:09;;;;;;;3.00;2.70;;;;;;;23.05;49.61;95000.41;6152758;23;19997;-77
2021/05/23 08:27:35;;;;;;;3.00;2.53;;;;;;;22.95;49.27;94989.72;6175842;23;20339;-79
2021/05/23 08:30:01;;;;;;;4.32;2.60;;;;;;;22.64;50.06;94992.97;6178478;23;20009;-75
2021/05/23 08:32:28;;;;;;;4.78;2.50;;;;;;;23.34;49.61;94942.84;6176225;23;20013;-76
2021/05/23 08:34:54;;;;;;;3.10;2.20;;;;;;;23.49;48.57;94980.81;6153722;23;20013;-76
2021/05/23 08:37:19;;;;;;;4.97;2.25;;;;;;;22.63;46.24;94965.00;6177883;23;20071;-77
2021/05/23 08:39:45;;;;;;;5.57;2.30;;;;;;;23.44;48.26;94980.75;6177197;23;20001;-76
2021/05/23 08:42:11;;;;;;;3.53;2.20;;;;;;;23.15;48.35;94976.72;6179516;23;20343;-76
2021/05/23 08:44:37;;;;;;;2.40;2.10;;;;;;;23.10;48.78;94982.75;6178786;23;20067;-77
2021/05/23 08:47:02;;;;;;;1.83;1.63;;;;;;;23.27;44.97;94974.75;6177367;23;20004;-78
2021/05/23 08:49:29;;;;;;;2.03;1.83;;;;;;;23.54;49.08;94972.13;6151491;23;20016;-76
2021/05/23 08:51:55;;;;;;;3.00;2.80;;;;;;;23.79;51.11;94979.50;6154127;23;20032;-77
2021/05/23 08:54:21;;;;;;;2.38;2.17;;;;;;;23.66;48.21;94980.72;6175922;23;20220;-76
2021/05/23 08:56:48;;;;;;;2.50;1.98;;;;;;;23.18;48.39;94989.47;6177073;23;20017;-76
2021/05/23 08:59:16;;;;;;;2.08;1.98;;;;;;;22.98;51.73;94989.22;6178402;23;20063;-77
2021/05/23 09:01:41;;;;;;;2.15;2.05;;;;;;;23.24;48.75;94969.97;6194663;23;20027;-77
2021/05/23 09:04:09;;;;;;;2.70;2.28;;;;;;;23.47;48.21;94987.41;6159875;23;20043;-76
2021/05/23 09:06:36;;;;;;;4.07;2.60;;;;;;;23.50;47.71;94987.69;6182664;23;20000;-79
2021/05/23 09:09:09;;;;;;;2.85;2.20;;;;;;;23.08;47.44;94962.91;6211003;23;20040;-76
2021/05/23 09:11:34;;;;;;;2.40;2.08;;;;;;;23.76;48.78;94977.38;6159237;23;20000;-79
2021/05/23 09:14:00;;;;;;;3.53;2.35;;;;;;;23.12;48.59;94961.34;6183856;23;20047;-78
2021/05/23 09:16:25;;;;;;;2.50;2.00;;;;;;;23.80;51.00;94967.84;6158326;23;20012;-77
2021/05/23 09:18:53;;;;;;;3.42;2.05;;;;;;;23.54;48.29;94929.81;6154699;23;20004;-78
2021/05/23 09:21:21;;;;;;;2.13;1.92;;;;;;;23.83;45.73;94970.81;6158342;23;20009;-79
2021/05/23 09:23:49;;;;;;;3.85;1.67;;;;;;;23.75;45.86;94971.28;6156871;23;20099;-78
2021/05/23 09:26:20;;;;;;;2.92;2.20;;;;;;;23.17;45.86;94968.56;6182741;23;20493;-78
2021/05/23 09:28:46;;;;;;;2.55;2.00;;;;;;;23.55;45.83;94974.53;6158607;23;20347;-79
2021/05/23 09:31:13;;;;;;;2.50;2.30;;;;;;;24.23;47.33;94980.94;6157479;23;20015;-79
2021/05/23 09:33:46;;;;;;;2.80;1.95;;;;;;;23.93;47.49;94967.44;6155886;23;20085;-78
2021/05/23 09:36:11;;;;;;;2.53;2.33;;;;;;;23.96;48.87;94967.72;6155716;23;20397;-78
2021/05/23 09:38:40;;;;;;;2.97;2.03;;;;;;;24.60;47.58;94967.63;6210175;23;20035;-81
2021/05/23 09:41:19;;;;;;;7.40;2.08;;;;;;;24.38;45.14;94967.78;6158875;23;20010;-78
2021/05/23 09:43:45;;;;;;;2.67;2.10;;;;;;;24.47;45.39;94949.53;6161101;23;20004;-81
2021/05/23 09:46:10;;;;;;;3.08;2.00;;;;;;;23.16;45.62;94961.66;6183207;23;20008;-78
2021/05/23 09:48:35;;;;;;;6.38;1.90;;;;;;;24.26;47.62;94969.84;6184235;23;20044;-78
2021/05/23 09:51:12;;;;;;;2.00;1.80;;;;;;;24.89;46.37;94958.25;6210924;23;20012;-77
2021/05/23 09:53:37;;;;;;;2.47;2.10;;;;;;;24.53;45.76;94957.25;6158310;23;20004;-81
2021/05/23 09:56:07;;;;;;;3.30;1.90;;;;;;;24.80;45.57;94956.34;6160019;23;20056;-77
2021/05/23 09:58:38;;;;;;;2.00;1.80;;;;;;;24.22;44.47;94947.56;6182730;23;20004;-78
2021/05/23 10:01:04;;;;;;;1.90;1.80;;;;;;;24.65;48.89;94947.28;6157487;23;20016;-77
2021/05/23 10:03:31;;;;;;;2.28;2.08;;;;;;;24.64;45.03;94924.47;6182374;23;20015;-79
2021/05/23 10:06:00;;;;;;;2.22;1.88;;;;;;;24.16;45.22;94940.63;6157958;23;20016;-78
2021/05/23 10:08:26;;;;;;;2.15;1.95;;;;;;;24.73;47.07;94943.31;6183677;23;20035;-77
2021/05/23 10:10:52;;;;;;;2.70;1.65;;;;;;;24.72;44.02;94914.44;6182597;23;20411;-78
2021/05/23 10:13:18;;;;;;;2.83;2.00;;;;;;;24.40;45.15;94933.88;6158453;23;20036;-81
2021/05/23 10:15:43;;;;;;;2.45;1.90;;;;;;;24.04;44.53;94908.25;6181693;23;20016;-81
2021/05/23 10:18:09;;;;;;;3.53;1.75;;;;;;;24.68;45.03;94895.63;6158090;23;20031;-79
2021/05/23 10:20:35;;;;;;;3.47;1.75;;;;;;;24.94;45.48;94917.72;6157193;23;20004;-79
2021/05/23 10:23:05;;;;;;;2.00;1.70;;;;;;;25.32;47.44;94898.72;6182935;23;20000;-78
2021/05/23 10:25:30;;;;;;;2.38;1.80;;;;;;;25.08;44.72;94916.16;6157155;23;20431;-79
2021/05/23 10:27:56;;;;;;;2.50;1.98;;;;;;;25.17;45.24;94904.78;6157324;23;20008;-79
2021/05/23 10:30:22;;;;;;;2.45;1.40;;;;;;;25.33;44.12;94915.44;6156673;23;20008;-79
2021/05/23 10:32:47;;;;;;;1.45;1.35;;;;;;;25.58;42.63;94913.63;6181080;23;20063;-82
2021/05/23 10:35:16;;;;;;;6.88;1.35;;;;;;;25.80;42.05;94902.75;6180906;23;20043;-81
2021/05/23 10:37:42;;;;;;;1.20;1.10;;;;;;;25.67;38.82;94890.81;6181349;23;20013;-81
2021/05/23 10:40:27;;;;;;;1.95;1.00;;;;;;;25.48;38.68;94880.97;6158010;23;20354;-84
2021/05/23 10:42:57;;;;;;;1.02;0.60;;;;;;;26.02;35.77;94886.50;6132155;23;20062;-84
2021/05/23 10:45:34;;;;;;;0.75;0.70;;;;;;;25.39;33.37;94878.03;6157077;23;20005;-84
2021/05/23 10:48:14;;;;;;;1.73;1.13;;;;;;;26.06;38.19;94866.34;6180920;23;20005;-80
2021/05/23 10:50:39;;;;;;;1.65;0.90;;;;;;;25.76;37.84;94875.13;6180248;23;20001;-77
2021/05/23 10:53:05;;;;;;;3.63;0.95;;;;;;;25.61;35.86;94852.06;6182721;23;20000;-79
2021/05/23 10:55:31;;;;;;;1.85;0.80;;;;;;;25.50;32.87;94865.59;6181170;23;20011;-82
2021/05/23 10:57:57;;;;;;;1.40;0.93;;;;;;;25.72;33.54;94868.00;6156244;23;20013;-80
2021/05/23 11:00:35;;;;;;;4.03;1.10;;;;;;;26.18;37.01;94869.53;6156897;23;20012;-80
2021/05/23 11:03:17;;;;;;;1.75;1.20;;;;;;;26.21;36.68;94879.59;6152398;23;20068;-80
2021/05/23 11:05:43;;;;;;;1.10;1.00;;;;;;;26.40;37.35;94862.00;6177723;23;20040;-79
2021/05/23 11:08:11;;;;;;;2.83;0.90;;;;;;;26.79;36.71;94859.44;6152242;23;20079;-78
2021/05/23 11:10:44;;;;;;;1.33;0.77;;;;;;;26.65;35.34;94861.91;6177793;23;20494;-79
2021/05/23 11:13:11;;;;;;;1.00;0.73;;;;;;;26.56;36.11;94834.31;6151614;23;20008;-81
2021/05/23 11:15:47;;;;;;;1.65;0.80;;;;;;;26.62;35.75;94835.88;6152457;23;20447;-79
2021/05/23 11:18:19;;;;;;;1.88;1.20;;;;;;;26.75;35.63;94853.09;6176816;23;20005;-80
2021/05/23 11:20:56;;;;;;;1.33;0.80;;;;;;;26.65;36.10;94831.91;6174856;23;20005;-80
2021/05/23 11:23:21;;;;;;;1.65;0.90;;;;;;;26.84;37.65;94829.41;6127654;23;20071;-79
2021/05/23 11:25:48;;;;;;;6.57;1.00;;;;;;;27.00;36.89;94833.56;6177371;23;20001;-80
2021/05/23 11:28:21;;;;;;;1.50;1.13;;;;;;;27.16;38.26;94830.50;6177259;23;20012;-81
2021/05/23 11:30:48;;;;;;;1.90;1.20;;;;;;;27.30;38.09;94825.38;6176845;23;20009;-79
2021/05/23 11:33:14;;;;;;;3.58;1.30;;;;;;;26.92;37.21;94826.16;6152049;23;20005;-78
2021/05/23 11:35:41;;;;;;;1.88;1.25;;;;;;;27.12;38.71;94812.75;6177221;23;20074;-81
2021/05/23 11:38:07;;;;;;;2.05;0.80;;;;;;;27.14;36.87;94782.13;6152681;23;20019;-81
2021/05/23 11:40:34;;;;;;;1.58;0.82;;;;;;;27.12;37.84;94788.81;6152735;23;20033;-79
2021/05/23 11:43:10;;;;;;;1.65;1.08;;;;;;;27.34;38.67;94740.47;6127009;23;20166;-82
2021/05/23 11:45:35;;;;;;;5.55;1.25;;;;;;;27.38;35.88;94798.19;6177326;23;20012;-77
2021/05/23 11:48:05;;;;;;;2.25;1.10;;;;;;;27.34;37.76;94797.13;6151604;23;20001;-81
2021/05/23 11:50:31;;;;;;;1.70;1.30;;;;;;;27.41;38.06;94786.16;6128095;23;20016;-82
2021/05/23 11:52:57;;;;;;;3.00;1.27;;;;;;;27.71;37.25;94786.69;6151898;23;20013;-81
2021/05/23 11:55:30;;;;;;;1.15;1.08;;;;;;;27.68;36.82;94779.28;6127090;23;20013;-80
2021/05/23 11:58:08;;;;;;;1.27;1.02;;;;;;;27.60;37.01;94763.13;6152197;23;20015;-80
2021/05/23 12:00:34;;;;;;;9.00;1.42;;;;;;;27.73;36.85;94776.59;6152392;23;20001;-79
2021/05/23 12:03:00;;;;;;;1.42;1.00;;;;;;;27.58;37.79;94776.72;6150713;23;20024;-81
2021/05/23 12:05:44;;;;;;;1.08;0.98;;;;;;;27.99;37.72;94760.31;6151521;23;20375;-80
2021/05/23 12:08:20;;;;;;;1.27;1.10;;;;;;;27.87;36.72;94758.03;6151643;23;20007;-80
2021/05/23 12:11:02;;;;;;;2.83;1.13;;;;;;;28.13;36.77;94764.69;6152439;23;20009;-82
2021/05/23 12:13:46;;;;;;;1.10;1.00;;;;;;;28.01;36.98;94758.97;6176264;23;20005;-81
2021/05/23 12:16:17;;;;;;;1.90;0.73;;;;;;;28.06;36.39;94744.81;6177540;23;20015;-81
2021/05/23 12:18:53;;;;;;;1.48;0.90;;;;;;;27.84;34.73;94750.63;6175657;23;20004;-81
2021/05/23 12:21:24;;;;;;;3.25;0.90;;;;;;;28.09;36.31;94744.25;6176382;23;20016;-81
2021/05/23 12:23:53;;;;;;;1.35;0.88;;;;;;;27.79;35.59;94704.63;6177363;23;20422;-81
2021/05/23 12:26:19;;;;;;;2.60;0.93;;;;;;;28.02;36.01;94743.78;6150049;23;20069;-81
2021/05/23 12:28:46;;;;;;;3.40;0.93;;;;;;;28.37;36.67;94727.38;6176387;23;20036;-81
2021/05/23 12:31:12;;;;;;;1.70;0.80;;;;;;;28.39;36.79;94725.19;6150588;23;20009;-83
2021/05/23 12:33:38;;;;;;;1.42;1.00;;;;;;;28.62;36.21;94734.22;6151102;23;20051;-82
2021/05/23 12:36:05;;;;;;;0.90;0.88;;;;;;;28.45;36.52;94736.59;6148700;23;20079;-81
2021/05/23 12:38:31;;;;;;;1.08;0.80;;;;;;;28.47;34.49;94729.09;6126768;23;20008;-80
2021/05/23 12:40:56;;;;;;;2.05;0.90;;;;;;;28.49;34.94;94726.94;6151282;23;20088;-82
2021/05/23 12:43:26;;;;;;;2.33;1.00;;;;;;;28.52;35.30;94718.34;6127466;23;20012;-85
2021/05/23 12:45:56;;;;;;;1.13;0.88;;;;;;;28.59;34.65;94716.91;6127808;23;20358;-80
2021/05/23 12:48:38;;;;;;;7.30;1.00;;;;;;;28.63;33.85;94712.59;6127057;23;20005;-83
2021/05/23 12:51:20;;;;;;;13.55;1.70;;;;;;;28.50;34.79;94718.66;6151304;23;20032;-82
2021/05/23 12:53:48;;;;;;;5.38;1.05;;;;;;;28.95;34.27;94711.88;6176229;23;20020;-80
2021/05/23 12:56:21;;;;;;;1.02;0.70;;;;;;;28.77;35.19;94694.81;6177213;23;20390;-82
2021/05/23 12:58:54;;;;;;;2.85;0.70;;;;;;;29.04;35.73;94710.13;6153081;23;20079;-83
2021/05/23 13:01:34;;;;;;;1.13;1.00;;;;;;;28.91;34.72;94705.53;6174175;23;20009;-90
2021/05/23 13:04:01;;;;;;;0.80;0.80;;;;;;;28.58;34.78;94704.66;6177597;23;20347;-84
2021/05/23 13:06:59;;;;;;;1.95;0.90;;;;;;;28.93;35.94;94705.25;6152587;23;20032;-85
2021/05/23 13:09:45;;;;;;;1.30;0.90;;;;;;;29.05;35.54;94697.56;6180821;23;20033;-83
2021/05/23 13:12:18;;;;;;;3.15;0.80;;;;;;;28.66;33.27;94696.06;6176274;23;20064;-85
2021/05/23 13:15:02;;;;;;;1.88;0.70;;;;;;;28.64;35.99;94692.84;6176315;23;20009;-83
2021/05/23 13:17:31;;;;;;;1.33;1.23;;;;;;;28.80;35.05;94692.66;6128815;23;20005;-83
2021/05/23 13:19:57;;;;;;;1.10;0.85;;;;;;;28.47;34.20;94691.78;6127324;23;20064;-83
2021/05/23 13:22:26;;;;;;;1.52;1.13;;;;;;;28.38;34.64;94688.19;6150851;23;20658;-85
2021/05/23 13:24:52;;;;;;;2.22;1.60;;;;;;;28.74;36.39;94695.38;6153003;23;20371;-83
2021/05/23 13:27:17;;;;;;;11.32;1.52;;;;;;;28.53;37.21;94690.63;6151589;23;20001;-84
2021/05/23 13:29:43;;;;;;;2.15;0.90;;;;;;;28.59;37.01;94695.59;6176234;23;20347;-83
2021/05/23 13:32:09;;;;;;;1.52;1.33;;;;;;;28.14;38.71;94697.03;6176100;23;20432;-84
2021/05/23 13:34:34;;;;;;;2.60;1.42;;;;;;;28.08;37.88;94689.38;6151513;23;20015;-86
2021/05/23 13:37:00;;;;;;;2.75;1.13;;;;;;;28.07;38.96;94671.78;6128070;23;20009;-82
2021/05/23 13:39:25;;;;;;;3.42;1.50;;;;;;;28.10;37.78;94682.69;6151276;23;20020;-86
2021/05/23 13:41:51;;;;;;;4.03;1.40;;;;;;;28.19;38.86;94691.59;6176526;23;20406;-82
2021/05/23 13:44:18;;;;;;;7.47;1.23;;;;;;;28.17;38.48;94693.78;6175619;23;20016;-86
2021/05/23 13:46:45;;;;;;;2.58;1.40;;;;;;;28.45;38.38;94684.06;6126080;23;20005;-84
2021/05/23 13:49:11;;;;;;;5.93;1.40;;;;;;;27.63;38.72;94624.94;6174461;23;20032;-84
2021/05/23 13:51:36;;;;;;;5.35;2.53;;;;;;;28.00;40.25;94669.47;6152347;23;20398;-86
2021/05/23 13:54:03;;;;;;;3.47;1.38;;;;;;;28.01;40.88;94670.25;6127772;23;20029;-84
2021/05/23 13:56:48;;;;;;;5.68;1.55;;;;;;;28.02;39.33;94687.84;6123104;23;20029;-83
2021/05/23 13:59:14;;;;;;;2.70;1.17;;;;;;;27.93;39.40;94670.91;6149503;23;20001;-84
2021/05/23 14:01:45;;;;;;;2.83;1.50;;;;;;;27.76;39.37;94676.69;6132404;23;20040;-86
2021/05/23 14:04:12;;;;;;;3.78;1.38;;;;;;;27.72;39.97;94668.47;6130771;23;20088;-82
2021/05/23 14:06:37;;;;;;;6.18;1.35;;;;;;;27.71;40.74;94658.91;6177087;23;20080;-86
2021/05/23 14:09:03;;;;;;;3.60;1.60;;;;;;;27.68;40.48;94686.09;6151769;23;20036;-84
2021/05/23 14:11:28;;;;;;;2.05;1.42;;;;;;;27.42;41.04;94644.06;6152364;23;20005;-86
2021/05/23 14:13:54;;;;;;;4.90;1.42;;;;;;;27.32;39.69;94654.81;6126918;23;20005;-84
2021/05/23 14:16:19;;;;;;;6.30;1.88;;;;;;;27.72;40.72;94675.66;6128275;23;20009;-84
2021/05/23 14:18:45;;;;;;;4.10;1.90;;;;;;;27.65;41.83;94668.03;6126790;23;20505;-82
2021/05/23 14:21:11;;;;;;;1.63;1.50;;;;;;;27.81;42.68;94673.16;6151628;23;20350;-86
2021/05/23 14:23:36;;;;;;;2.67;1.52;;;;;;;27.66;42.35;94672.28;6178120;23;20009;-84
2021/05/23 14:26:02;;;;;;;3.10;1.50;;;;;;;27.41;41.71;94664.56;6128248;23;20374;-85
2021/05/23 14:28:28;;;;;;;1.40;1.30;;;;;;;27.29;41.71;94664.16;6154164;23;20496;-82
2021/05/23 14:30:54;;;;;;;6.72;2.13;;;;;;;27.40;43.00;94654.97;6176025;23;20083;-84
2021/05/23 14:33:21;;;;;;;2.40;1.60;;;;;;;27.31;40.83;94658.53;6128927;23;20401;-86
2021/05/23 14:35:50;;;;;;;2.28;1.40;;;;;;;27.20;41.77;94660.50;6154054;23;20462;-83
2021/05/23 14:38:16;;;;;;;;;;;;;;;27.36;41.62;94669.91;6131229;23;20001;-81
2021/05/23 14:40:41;;;;;;;3.60;1.75;;;;;;;27.37;42.37;94670.72;6153073;23;19919;-85
2021/05/23 14:43:07;;;;;;;1.40;1.30;;;;;;;27.24;42.31;94678.28;6155122;23;20024;-87
2021/05/23 14:45:33;;;;;;;1.38;1.20;;;;;;;27.31;42.95;94685.94;6154382;23;20017;-83
2021/05/23 14:47:59;;;;;;;2.20;2.00;;;;;;;27.06;41.35;94678.22;6177953;23;20001;-84
2021/05/23 14:50:24;;;;;;;2.65;1.50;;;;;;;26.89;41.53;94688.44;6128573;23;20096;-89
2021/05/23 14:52:50;;;;;;;1.50;1.40;;;;;;;26.85;41.80;94671.47;6177512;23;20029;-81
2021/05/23 14:55:18;;;;;;;2.88;1.42;;;;;;;26.89;41.63;94662.66;6128444;23;20044;-84
2021/05/23 14:57:45;;;;;;;3.03;1.33;;;;;;;27.21;43.40;94670.88;6151736;23;20451;-81
2021/05/23 15:00:11;;;;;;;2.28;1.98;;;;;;;27.19;41.16;94664.25;6128890;23;20001;-81
2021/05/23 15:02:37;;;;;;;2.28;1.60;;;;;;;26.79;41.42;94677.88;6149374;23;20459;-77
2021/05/23 15:05:04;;;;;;;1.63;1.20;;;;;;;26.64;42.07;94676.13;6157213;23;20131;-82
2021/05/23 15:07:29;;;;;;;8.48;1.67;;;;;;;26.75;41.64;94682.94;6157721;23;20154;-79
2021/05/23 15:09:55;;;;;;;3.53;1.27;;;;;;;26.51;41.65;94684.72;6132173;23;20005;-78
2021/05/23 15:12:20;;;;;;;5.32;1.88;;;;;;;26.56;41.84;94685.47;6208949;23;20082;-77
2021/05/23 15:14:46;;;;;;;4.03;2.20;;;;;;;26.44;41.32;94668.28;6208072;23;20008;-79
2021/05/23 15:17:12;;;;;;;2.28;1.70;;;;;;;26.48;41.80;94672.00;6158641;23;20005;-84
2021/05/23 15:19:37;;;;;;;3.80;1.42;;;;;;;26.52;41.69;94684.44;6156959;23;20347;-83
2021/05/23 15:22:03;;;;;;;2.80;1.42;;;;;;;26.29;41.38;94673.72;6157499;23;20384;-82
2021/05/23 15:24:29;;;;;;;3.05;1.88;;;;;;;26.32;40.95;94679.28;6207383;23;20008;-81
2021/05/23 15:26:59;;;;;;;4.80;3.50;;;;;;;26.37;41.76;94697.03;6156973;23;20324;-81
2021/05/23 15:32:10;;;;;;;10.35;2.13;;;;;;;26.15;40.80;94695.53;6184396;23;20011;-85
2021/05/23 15:34:36;;;;;;;7.82;2.20;;;;;;;25.98;40.40;94686.31;6205481;23;20164;-86
2021/05/23 15:37:01;;;;;;;3.40;1.30;;;;;;;26.02;40.75;94706.75;6155903;23;20000;-79
2021/05/23 15:39:27;;;;;;;2.72;1.95;;;;;;;26.11;41.35;94709.63;6157231;23;20456;-81
2021/05/23 15:41:52;;;;;;;3.08;1.92;;;;;;;26.01;40.95;94717.63;6181534;23;20036;-84
2021/05/23 15:44:18;;;;;;;2.13;1.40;;;;;;;25.92;41.22;94716.63;6155860;23;20091;-83
2021/05/23 15:46:44;;;;;;;3.55;2.00;;;;;;;25.79;42.13;94695.97;6131315;23;20060;-81
2021/05/23 15:49:09;;;;;;;5.57;1.67;;;;;;;25.77;41.55;94708.72;6132360;23;20000;-82
2021/05/23 15:51:35;;;;;;;2.95;2.25;;;;;;;25.76;41.55;94713.22;6181839;23;20000;-82
2021/05/23 15:54:00;;;;;;;22.70;9.48;;;;;;;25.76;42.17;94721.19;6156009;23;20039;-80
2021/05/23 15:56:26;;;;;;;3.33;3.03;;;;;;;25.65;41.09;94704.50;6157084;23;20180;-82
2021/05/23 15:58:52;;;;;;;2.78;1.50;;;;;;;25.43;41.14;94688.09;6156059;23;20008;-80
2021/05/23 16:01:17;;;;;;;4.75;4.35;;;;;;;25.47;40.26;94707.72;6156383;23;20013;-80
2021/05/23 16:03:47;;;;;;;7.95;6.53;;;;;;;25.54;41.14;94716.22;6157429;23;20523;-82
2021/05/23 16:06:13;;;;;;;;;;;;;;;25.51;41.12;94729.22;6157018;23;20456;-81
2021/05/23 16:08:38;;;;;;;1.45;1.30;;;;;;;25.41;41.56;94724.72;6182157;23;20138;-82
2021/05/23 16:11:05;;;;;;;7.63;6.90;;;;;;;25.41;42.04;94727.34;6155628;23;20016;-82
2021/05/23 16:13:31;;;;;;;5.15;4.68;;;;;;;25.31;41.49;94727.38;6156732;23;20098;-80
2021/05/23 16:15:56;;;;;;;4.00;3.60;;;;;;;25.24;41.16;94723.41;6207267;23;20008;-83
2021/05/23 16:18:22;;;;;;;19.02;13.35;;;;;;;25.25;41.63;94728.44;6156450;23;20008;-80
2021/05/23 16:20:48;;;;;;;6.13;5.53;;;;;;;25.05;41.30;94707.25;6181307;23;20013;-79
2021/05/23 16:23:14;;;;;;;4.93;2.38;;;;;;;25.15;41.82;94728.44;6156739;23;20000;-81
2021/05/23 16:25:39;;;;;;;8.02;3.28;;;;;;;25.08;42.47;94741.16;6156298;23;20005;-79
2021/05/23 16:28:04;;;;;;;2.95;2.08;;;;;;;24.95;41.01;94731.91;6207550;23;20009;-81
2021/05/23 16:30:30;;;;;;;14.40;13.05;;;;;;;24.85;41.12;94723.94;6181005;23;20001;-77
2021/05/23 16:32:55;;;;;;;1.83;1.50;;;;;;;24.79;41.55;94738.22;6155617;23;20000;-80
2021/05/23 16:35:21;;;;;;;4.72;4.32;;;;;;;24.78;41.39;94743.81;6156199;23;20426;-79
2021/05/23 16:37:46;;;;;;;3.88;2.20;;;;;;;24.79;41.37;94742.75;6155756;23;20084;-79